sensor_id;sensor_type;location;lat;lon;timestamp;temperature;humidity
22827;DHT22;11580;52.562;13.418;2022-11-21T00:01:00;3.90;32.60
22827;DHT22;11580;52.562;13.418;2022-11-21T00:03:37;4.00;32.30
22827;DHT22;11580;52.562;13.418;2022-11-21T00:06:05;4.10;32.20
22827;DHT22;11580;52.562;13.418;2022-11-21T00:08:32;4.20;32.10
22827;DHT22;11580;52.562;13.418;2022-11-21T00:10:59;4.30;32.10
22827;DHT22;11580;52.562;13.418;2022-11-21T00:13:26;4.40;32.10
22827;DHT22;11580;52.562;13.418;2022-11-21T00:15:55;4.50;31.90
22827;DHT22;11580;52.562;13.418;2022-11-21T00:18:22;4.50;31.80
22827;DHT22;11580;52.562;13.418;2022-11-21T00:20:49;4.60;31.70
22827;DHT22;11580;52.562;13.418;2022-11-21T00:23:16;4.60;31.50
22827;DHT22;11580;52.562;13.418;2022-11-21T00:25:44;4.70;31.50
22827;DHT22;11580;52.562;13.418;2022-11-21T00:28:11;4.80;31.50
22827;DHT22;11580;52.562;13.418;2022-11-21T00:30:38;4.80;31.40
22827;DHT22;11580;52.562;13.418;2022-11-21T00:33:06;4.90;32.10
22827;DHT22;11580;52.562;13.418;2022-11-21T00:35:34;4.90;31.30
22827;DHT22;11580;52.562;13.418;2022-11-21T00:38:01;5.00;31.10
22827;DHT22;11580;52.562;13.418;2022-11-21T00:40:28;5.00;31.10
22827;DHT22;11580;52.562;13.418;2022-11-21T00:42:55;5.10;31.20
22827;DHT22;11580;52.562;13.418;2022-11-21T00:45:22;5.10;31.20
22827;DHT22;11580;52.562;13.418;2022-11-21T00:47:49;5.20;31.20
22827;DHT22;11580;52.562;13.418;2022-11-21T00:50:18;5.40;31.40
22827;DHT22;11580;52.562;13.418;2022-11-21T00:52:45;5.30;31.30
22827;DHT22;11580;52.562;13.418;2022-11-21T00:55:12;5.30;31.30
22827;DHT22;11580;52.562;13.418;2022-11-21T00:57:39;5.40;31.40
22827;DHT22;11580;52.562;13.418;2022-11-21T01:00:08;5.40;31.90
22827;DHT22;11580;52.562;13.418;2022-11-21T01:02:36;5.50;31.20
22827;DHT22;11580;52.562;13.418;2022-11-21T01:05:04;5.50;31.10
22827;DHT22;11580;52.562;13.418;2022-11-21T01:07:33;5.50;31.10
22827;DHT22;11580;52.562;13.418;2022-11-21T01:10:00;5.60;31.10
22827;DHT22;11580;52.562;13.418;2022-11-21T01:12:27;5.60;31.00
22827;DHT22;11580;52.562;13.418;2022-11-21T01:14:54;5.70;31.10
22827;DHT22;11580;52.562;13.418;2022-11-21T01:17:21;5.70;31.00
22827;DHT22;11580;52.562;13.418;2022-11-21T01:19:48;5.80;30.90
22827;DHT22;11580;52.562;13.418;2022-11-21T01:22:16;5.80;30.80
22827;DHT22;11580;52.562;13.418;2022-11-21T01:24:45;5.80;30.70
22827;DHT22;11580;52.562;13.418;2022-11-21T01:27:12;5.80;30.60
22827;DHT22;11580;52.562;13.418;2022-11-21T01:29:39;5.90;30.70
22827;DHT22;11580;52.562;13.418;2022-11-21T01:32:06;5.90;30.70
22827;DHT22;11580;52.562;13.418;2022-11-21T01:34:34;5.90;31.40
22827;DHT22;11580;52.562;13.418;2022-11-21T01:37:01;5.90;30.60
22827;DHT22;11580;52.562;13.418;2022-11-21T01:39:28;5.90;30.60
22827;DHT22;11580;52.562;13.418;2022-11-21T01:41:56;6.00;30.70
22827;DHT22;11580;52.562;13.418;2022-11-21T01:44:26;6.00;30.70
22827;DHT22;11580;52.562;13.418;2022-11-21T01:47:10;6.00;30.70
22827;DHT22;11580;52.562;13.418;2022-11-21T01:49:39;6.00;30.70
22827;DHT22;11580;52.562;13.418;2022-11-21T01:52:10;6.00;30.70
22827;DHT22;11580;52.562;13.418;2022-11-21T01:54:43;6.00;31.40
22827;DHT22;11580;52.562;13.418;2022-11-21T01:57:16;6.10;30.80
22827;DHT22;11580;52.562;13.418;2022-11-21T01:59:50;6.00;30.80
22827;DHT22;11580;52.562;13.418;2022-11-21T02:02:25;6.10;31.60
22827;DHT22;11580;52.562;13.418;2022-11-21T02:04:55;6.10;30.90
22827;DHT22;11580;52.562;13.418;2022-11-21T02:07:23;6.10;31.60
22827;DHT22;11580;52.562;13.418;2022-11-21T02:09:56;6.10;30.80
22827;DHT22;11580;52.562;13.418;2022-11-21T02:12:31;6.10;30.80
22827;DHT22;11580;52.562;13.418;2022-11-21T02:15:01;6.10;30.70
22827;DHT22;11580;52.562;13.418;2022-11-21T02:17:28;6.10;30.60
22827;DHT22;11580;52.562;13.418;2022-11-21T02:19:59;6.20;30.80
22827;DHT22;11580;52.562;13.418;2022-11-21T02:22:36;6.20;30.80
22827;DHT22;11580;52.562;13.418;2022-11-21T02:25:13;6.20;30.80
22827;DHT22;11580;52.562;13.418;2022-11-21T02:27:42;6.20;30.80
22827;DHT22;11580;52.562;13.418;2022-11-21T02:30:10;6.20;30.80
22827;DHT22;11580;52.562;13.418;2022-11-21T02:32:40;6.20;30.80
22827;DHT22;11580;52.562;13.418;2022-11-21T02:35:18;6.20;30.80
22827;DHT22;11580;52.562;13.418;2022-11-21T02:37:47;6.20;30.60
22827;DHT22;11580;52.562;13.418;2022-11-21T02:40:21;6.20;30.70
22827;DHT22;11580;52.562;13.418;2022-11-21T02:42:58;6.20;31.30
22827;DHT22;11580;52.562;13.418;2022-11-21T02:45:32;6.20;30.50
22827;DHT22;11580;52.562;13.418;2022-11-21T02:48:04;6.20;30.50
22827;DHT22;11580;52.562;13.418;2022-11-21T02:50:33;6.20;30.50
22827;DHT22;11580;52.562;13.418;2022-11-21T02:53:02;6.20;30.50
22827;DHT22;11580;52.562;13.418;2022-11-21T02:55:32;6.20;30.50
22827;DHT22;11580;52.562;13.418;2022-11-21T02:58:00;6.20;31.20
22827;DHT22;11580;52.562;13.418;2022-11-21T03:00:27;6.20;30.50
22827;DHT22;11580;52.562;13.418;2022-11-21T03:02:55;6.20;30.50
22827;DHT22;11580;52.562;13.418;2022-11-21T03:05:22;6.20;30.60
22827;DHT22;11580;52.562;13.418;2022-11-21T03:07:50;6.20;30.60
22827;DHT22;11580;52.562;13.418;2022-11-21T03:10:17;6.20;30.60
22827;DHT22;11580;52.562;13.418;2022-11-21T03:12:46;6.20;30.50
22827;DHT22;11580;52.562;13.418;2022-11-21T03:15:14;6.10;30.30
22827;DHT22;11580;52.562;13.418;2022-11-21T03:17:42;6.10;30.20
22827;DHT22;11580;52.562;13.418;2022-11-21T03:20:10;6.10;30.20
22827;DHT22;11580;52.562;13.418;2022-11-21T03:22:37;6.10;30.10
22827;DHT22;11580;52.562;13.418;2022-11-21T03:25:05;6.10;30.00
22827;DHT22;11580;52.562;13.418;2022-11-21T03:27:32;6.00;30.00
22827;DHT22;11580;52.562;13.418;2022-11-21T03:30:01;6.00;30.00
22827;DHT22;11580;52.562;13.418;2022-11-21T03:32:28;6.00;30.00
22827;DHT22;11580;52.562;13.418;2022-11-21T03:34:55;5.90;29.90
22827;DHT22;11580;52.562;13.418;2022-11-21T03:37:22;5.90;29.90
22827;DHT22;11580;52.562;13.418;2022-11-21T03:39:49;5.80;29.70
22827;DHT22;11580;52.562;13.418;2022-11-21T03:42:16;5.80;29.80
22827;DHT22;11580;52.562;13.418;2022-11-21T03:44:43;5.70;29.70
22827;DHT22;11580;52.562;13.418;2022-11-21T03:47:12;5.60;29.60
22827;DHT22;11580;52.562;13.418;2022-11-21T03:49:39;5.60;29.60
22827;DHT22;11580;52.562;13.418;2022-11-21T03:52:06;5.50;29.60
22827;DHT22;11580;52.562;13.418;2022-11-21T03:54:33;5.40;29.60
22827;DHT22;11580;52.562;13.418;2022-11-21T03:57:00;5.30;29.60
22827;DHT22;11580;52.562;13.418;2022-11-21T03:59:27;5.30;29.70
22827;DHT22;11580;52.562;13.418;2022-11-21T04:01:55;5.20;29.80
22827;DHT22;11580;52.562;13.418;2022-11-21T04:04:23;5.20;29.90
22827;DHT22;11580;52.562;13.418;2022-11-21T04:06:50;5.10;30.10
22827;DHT22;11580;52.562;13.418;2022-11-21T04:09:17;5.00;30.20
22827;DHT22;11580;52.562;13.418;2022-11-21T04:11:44;5.20;30.60
22827;DHT22;11580;52.562;13.418;2022-11-21T04:14:12;5.00;30.50
22827;DHT22;11580;52.562;13.418;2022-11-21T04:16:39;5.10;30.70
22827;DHT22;11580;52.562;13.418;2022-11-21T04:19:06;5.10;31.50
22827;DHT22;11580;52.562;13.418;2022-11-21T04:21:34;5.10;30.90
22827;DHT22;11580;52.562;13.418;2022-11-21T04:24:02;5.10;31.00
22827;DHT22;11580;52.562;13.418;2022-11-21T04:26:29;5.20;31.00
22827;DHT22;11580;52.562;13.418;2022-11-21T04:28:56;5.20;31.00
22827;DHT22;11580;52.562;13.418;2022-11-21T04:31:24;5.30;31.10
22827;DHT22;11580;52.562;13.418;2022-11-21T04:33:51;5.30;31.00
22827;DHT22;11580;52.562;13.418;2022-11-21T04:36:18;5.40;31.10
22827;DHT22;11580;52.562;13.418;2022-11-21T04:38:46;5.40;30.90
22827;DHT22;11580;52.562;13.418;2022-11-21T04:41:13;5.50;30.90
22827;DHT22;11580;52.562;13.418;2022-11-21T04:43:41;5.50;30.70
22827;DHT22;11580;52.562;13.418;2022-11-21T04:46:08;5.60;31.50
22827;DHT22;11580;52.562;13.418;2022-11-21T04:48:35;5.60;30.70
22827;DHT22;11580;52.562;13.418;2022-11-21T04:51:02;5.60;30.60
22827;DHT22;11580;52.562;13.418;2022-11-21T04:53:29;5.70;30.60
22827;DHT22;11580;52.562;13.418;2022-11-21T04:55:58;5.70;30.50
22827;DHT22;11580;52.562;13.418;2022-11-21T04:58:29;5.70;31.20
22827;DHT22;11580;52.562;13.418;2022-11-21T05:00:56;5.80;31.10
22827;DHT22;11580;52.562;13.418;2022-11-21T05:03:23;5.70;30.20
22827;DHT22;11580;52.562;13.418;2022-11-21T05:05:51;5.70;30.10
22827;DHT22;11580;52.562;13.418;2022-11-21T05:08:19;5.70;30.00
22827;DHT22;11580;52.562;13.418;2022-11-21T05:10:46;5.70;30.00
22827;DHT22;11580;52.562;13.418;2022-11-21T05:13:32;5.70;30.00
22827;DHT22;11580;52.562;13.418;2022-11-21T05:15:59;5.70;30.00
22827;DHT22;11580;52.562;13.418;2022-11-21T05:18:26;5.70;30.20
22827;DHT22;11580;52.562;13.418;2022-11-21T05:20:54;5.70;30.00
22827;DHT22;11580;52.562;13.418;2022-11-21T05:23:21;5.60;30.60
22827;DHT22;11580;52.562;13.418;2022-11-21T05:25:48;5.60;29.90
22827;DHT22;11580;52.562;13.418;2022-11-21T05:28:15;5.60;29.90
22827;DHT22;11580;52.562;13.418;2022-11-21T05:30:44;5.60;30.00
22827;DHT22;11580;52.562;13.418;2022-11-21T05:33:11;5.50;29.90
22827;DHT22;11580;52.562;13.418;2022-11-21T05:35:38;5.50;30.60
22827;DHT22;11580;52.562;13.418;2022-11-21T05:38:05;5.50;30.00
22827;DHT22;11580;52.562;13.418;2022-11-21T05:40:33;5.50;30.00
22827;DHT22;11580;52.562;13.418;2022-11-21T05:43:00;5.40;30.10
22827;DHT22;11580;52.562;13.418;2022-11-21T05:45:47;5.40;30.10
22827;DHT22;11580;52.562;13.418;2022-11-21T05:48:15;5.50;31.00
22827;DHT22;11580;52.562;13.418;2022-11-21T05:50:45;5.40;30.40
22827;DHT22;11580;52.562;13.418;2022-11-21T05:53:14;5.40;30.40
22827;DHT22;11580;52.562;13.418;2022-11-21T05:55:41;5.40;30.40
22827;DHT22;11580;52.562;13.418;2022-11-21T05:58:09;5.50;31.10
22827;DHT22;11580;52.562;13.418;2022-11-21T06:00:37;5.50;30.40
22827;DHT22;11580;52.562;13.418;2022-11-21T06:03:05;5.50;30.40
22827;DHT22;11580;52.562;13.418;2022-11-21T06:05:52;5.50;30.30
22827;DHT22;11580;52.562;13.418;2022-11-21T06:08:23;5.50;30.20
22827;DHT22;11580;52.562;13.418;2022-11-21T06:10:50;5.50;30.90
22827;DHT22;11580;52.562;13.418;2022-11-21T06:13:18;5.50;30.10
22827;DHT22;11580;52.562;13.418;2022-11-21T06:15:52;5.50;30.10
22827;DHT22;11580;52.562;13.418;2022-11-21T06:18:23;5.50;30.20
22827;DHT22;11580;52.562;13.418;2022-11-21T06:20:50;5.50;30.20
22827;DHT22;11580;52.562;13.418;2022-11-21T06:23:18;5.50;30.20
22827;DHT22;11580;52.562;13.418;2022-11-21T06:25:45;5.50;31.00
22827;DHT22;11580;52.562;13.418;2022-11-21T06:28:12;5.50;30.90
22827;DHT22;11580;52.562;13.418;2022-11-21T06:30:39;5.50;30.40
22827;DHT22;11580;52.562;13.418;2022-11-21T06:33:07;5.50;30.40
22827;DHT22;11580;52.562;13.418;2022-11-21T06:35:37;5.50;30.40
22827;DHT22;11580;52.562;13.418;2022-11-21T06:38:05;5.50;30.30
22827;DHT22;11580;52.562;13.418;2022-11-21T06:40:32;5.50;30.20
22827;DHT22;11580;52.562;13.418;2022-11-21T06:42:59;5.50;30.20
22827;DHT22;11580;52.562;13.418;2022-11-21T06:45:27;5.50;30.10
22827;DHT22;11580;52.562;13.418;2022-11-21T06:47:54;5.40;30.00
22827;DHT22;11580;52.562;13.418;2022-11-21T06:50:21;5.40;30.00
22827;DHT22;11580;52.562;13.418;2022-11-21T06:52:50;5.30;29.90
22827;DHT22;11580;52.562;13.418;2022-11-21T06:55:17;5.30;29.90
22827;DHT22;11580;52.562;13.418;2022-11-21T06:57:45;5.20;29.70
22827;DHT22;11580;52.562;13.418;2022-11-21T07:00:14;5.10;29.60
22827;DHT22;11580;52.562;13.418;2022-11-21T07:02:42;5.00;29.60
22827;DHT22;11580;52.562;13.418;2022-11-21T07:05:09;4.90;29.60
22827;DHT22;11580;52.562;13.418;2022-11-21T07:07:36;4.80;29.60
22827;DHT22;11580;52.562;13.418;2022-11-21T07:10:05;4.70;29.60
22827;DHT22;11580;52.562;13.418;2022-11-21T07:12:33;4.60;29.80
22827;DHT22;11580;52.562;13.418;2022-11-21T07:15:19;4.60;29.90
22827;DHT22;11580;52.562;13.418;2022-11-21T07:17:46;4.40;29.80
22827;DHT22;11580;52.562;13.418;2022-11-21T07:20:13;4.40;30.00
22827;DHT22;11580;52.562;13.418;2022-11-21T07:22:41;4.30;30.00
22827;DHT22;11580;52.562;13.418;2022-11-21T07:25:09;4.30;30.00
22827;DHT22;11580;52.562;13.418;2022-11-21T07:27:36;4.20;30.40
22827;DHT22;11580;52.562;13.418;2022-11-21T07:30:04;4.10;30.10
22827;DHT22;11580;52.562;13.418;2022-11-21T07:32:32;4.10;30.40
22827;DHT22;11580;52.562;13.418;2022-11-21T07:34:59;4.00;30.30
22827;DHT22;11580;52.562;13.418;2022-11-21T07:37:27;4.20;30.60
22827;DHT22;11580;52.562;13.418;2022-11-21T07:39:54;4.00;30.70
22827;DHT22;11580;52.562;13.418;2022-11-21T07:42:22;4.00;30.90
22827;DHT22;11580;52.562;13.418;2022-11-21T07:44:50;4.00;31.30
22827;DHT22;11580;52.562;13.418;2022-11-21T07:47:17;4.00;31.50
22827;DHT22;11580;52.562;13.418;2022-11-21T07:49:44;4.10;32.40
22827;DHT22;11580;52.562;13.418;2022-11-21T07:52:11;4.10;31.80
22827;DHT22;11580;52.562;13.418;2022-11-21T07:54:38;4.20;32.00
22827;DHT22;11580;52.562;13.418;2022-11-21T07:57:05;4.30;32.20
22827;DHT22;11580;52.562;13.418;2022-11-21T07:59:34;4.40;32.20
22827;DHT22;11580;52.562;13.418;2022-11-21T08:02:02;4.50;32.20
22827;DHT22;11580;52.562;13.418;2022-11-21T08:04:29;4.70;32.30
22827;DHT22;11580;52.562;13.418;2022-11-21T08:06:56;4.80;32.20
22827;DHT22;11580;52.562;13.418;2022-11-21T08:09:27;4.80;32.10
22827;DHT22;11580;52.562;13.418;2022-11-21T08:11:54;5.00;32.10
22827;DHT22;11580;52.562;13.418;2022-11-21T08:14:21;5.00;32.60
22827;DHT22;11580;52.562;13.418;2022-11-21T08:16:52;5.10;31.90
22827;DHT22;11580;52.562;13.418;2022-11-21T08:19:19;5.20;32.40
22827;DHT22;11580;52.562;13.418;2022-11-21T08:21:46;5.30;31.60
22827;DHT22;11580;52.562;13.418;2022-11-21T08:24:13;5.30;31.40
22827;DHT22;11580;52.562;13.418;2022-11-21T08:26:42;5.30;31.40
22827;DHT22;11580;52.562;13.418;2022-11-21T08:29:09;5.40;32.10
22827;DHT22;11580;52.562;13.418;2022-11-21T08:31:37;5.40;31.40
22827;DHT22;11580;52.562;13.418;2022-11-21T08:34:06;5.40;31.40
22827;DHT22;11580;52.562;13.418;2022-11-21T08:36:34;5.50;31.50
22827;DHT22;11580;52.562;13.418;2022-11-21T08:39:01;5.50;31.50
22827;DHT22;11580;52.562;13.418;2022-11-21T08:41:29;5.50;31.50
22827;DHT22;11580;52.562;13.418;2022-11-21T08:44:14;5.50;32.20
22827;DHT22;11580;52.562;13.418;2022-11-21T08:46:41;5.60;31.60
22827;DHT22;11580;52.562;13.418;2022-11-21T08:49:10;5.60;31.40
22827;DHT22;11580;52.562;13.418;2022-11-21T08:51:37;5.60;31.20
22827;DHT22;11580;52.562;13.418;2022-11-21T08:54:04;5.60;30.90
22827;DHT22;11580;52.562;13.418;2022-11-21T08:56:32;5.70;30.80
22827;DHT22;11580;52.562;13.418;2022-11-21T08:58:59;5.60;30.70
22827;DHT22;11580;52.562;13.418;2022-11-21T09:01:27;5.60;30.80
22827;DHT22;11580;52.562;13.418;2022-11-21T09:03:54;5.60;30.90
22827;DHT22;11580;52.562;13.418;2022-11-21T09:06:22;5.60;31.70
22827;DHT22;11580;52.562;13.418;2022-11-21T09:08:49;5.60;31.00
22827;DHT22;11580;52.562;13.418;2022-11-21T09:11:17;5.70;31.10
22827;DHT22;11580;52.562;13.418;2022-11-21T09:13:45;5.70;31.00
22827;DHT22;11580;52.562;13.418;2022-11-21T09:16:32;5.70;30.90
22827;DHT22;11580;52.562;13.418;2022-11-21T09:19:17;5.80;30.80
22827;DHT22;11580;52.562;13.418;2022-11-21T09:21:47;5.80;30.80
22827;DHT22;11580;52.562;13.418;2022-11-21T09:24:15;5.80;30.70
22827;DHT22;11580;52.562;13.418;2022-11-21T09:26:43;5.80;30.80
22827;DHT22;11580;52.562;13.418;2022-11-21T09:29:11;5.80;30.90
22827;DHT22;11580;52.562;13.418;2022-11-21T09:31:40;5.80;31.00
22827;DHT22;11580;52.562;13.418;2022-11-21T09:34:07;5.80;31.10
22827;DHT22;11580;52.562;13.418;2022-11-21T09:36:35;5.90;31.30
22827;DHT22;11580;52.562;13.418;2022-11-21T09:39:03;5.90;31.20
22827;DHT22;11580;52.562;13.418;2022-11-21T09:41:36;6.00;31.30
22827;DHT22;11580;52.562;13.418;2022-11-21T09:44:29;6.10;31.30
22827;DHT22;11580;52.562;13.418;2022-11-21T09:47:13;6.20;31.10
22827;DHT22;11580;52.562;13.418;2022-11-21T09:49:53;6.20;30.70
22827;DHT22;11580;52.562;13.418;2022-11-21T09:52:29;6.30;30.60
22827;DHT22;11580;52.562;13.418;2022-11-21T09:55:06;6.30;30.40
22827;DHT22;11580;52.562;13.418;2022-11-21T09:57:44;6.40;30.30
22827;DHT22;11580;52.562;13.418;2022-11-21T10:00:18;6.40;30.40
22827;DHT22;11580;52.562;13.418;2022-11-21T10:02:47;6.50;30.40
22827;DHT22;11580;52.562;13.418;2022-11-21T10:05:15;6.60;30.50
22827;DHT22;11580;52.562;13.418;2022-11-21T10:07:43;6.60;30.40
22827;DHT22;11580;52.562;13.418;2022-11-21T10:10:28;6.60;30.10
22827;DHT22;11580;52.562;13.418;2022-11-21T10:13:16;6.70;29.50
22827;DHT22;11580;52.562;13.418;2022-11-21T10:15:56;6.70;29.50
22827;DHT22;11580;52.562;13.418;2022-11-21T10:18:54;6.80;29.70
22827;DHT22;11580;52.562;13.418;2022-11-21T10:21:52;6.80;29.30
22827;DHT22;11580;52.562;13.418;2022-11-21T10:24:39;6.80;29.40
22827;DHT22;11580;52.562;13.418;2022-11-21T10:27:19;6.80;29.50
22827;DHT22;11580;52.562;13.418;2022-11-21T10:29:56;6.80;29.50
22827;DHT22;11580;52.562;13.418;2022-11-21T10:32:30;6.80;29.30
22827;DHT22;11580;52.562;13.418;2022-11-21T10:35:12;6.70;29.20
22827;DHT22;11580;52.562;13.418;2022-11-21T10:37:46;6.70;28.90
22827;DHT22;11580;52.562;13.418;2022-11-21T10:40:34;6.60;28.80
22827;DHT22;11580;52.562;13.418;2022-11-21T10:43:09;6.50;28.60
22827;DHT22;11580;52.562;13.418;2022-11-21T10:46:04;6.40;28.70
22827;DHT22;11580;52.562;13.418;2022-11-21T10:48:31;6.30;28.70
22827;DHT22;11580;52.562;13.418;2022-11-21T10:51:17;6.10;28.70
22827;DHT22;11580;52.562;13.418;2022-11-21T10:54:05;6.00;28.60
22827;DHT22;11580;52.562;13.418;2022-11-21T10:56:51;5.90;28.80
22827;DHT22;11580;52.562;13.418;2022-11-21T10:59:25;5.80;29.00
22827;DHT22;11580;52.562;13.418;2022-11-21T11:01:55;5.70;29.20
22827;DHT22;11580;52.562;13.418;2022-11-21T11:04:24;5.60;29.40
22827;DHT22;11580;52.562;13.418;2022-11-21T11:06:53;5.60;30.00
22827;DHT22;11580;52.562;13.418;2022-11-21T11:09:28;5.60;29.50
22827;DHT22;11580;52.562;13.418;2022-11-21T11:12:18;5.60;29.60
22827;DHT22;11580;52.562;13.418;2022-11-21T11:14:52;5.60;29.60
22827;DHT22;11580;52.562;13.418;2022-11-21T11:17:27;5.70;30.60
22827;DHT22;11580;52.562;13.418;2022-11-21T11:20:00;5.70;30.70
22827;DHT22;11580;52.562;13.418;2022-11-21T11:22:31;5.80;30.00
22827;DHT22;11580;52.562;13.418;2022-11-21T11:24:58;5.90;30.20
22827;DHT22;11580;52.562;13.418;2022-11-21T11:27:29;6.00;30.20
22827;DHT22;11580;52.562;13.418;2022-11-21T11:30:05;6.10;30.20
22827;DHT22;11580;52.562;13.418;2022-11-21T11:32:38;6.30;29.90
22827;DHT22;11580;52.562;13.418;2022-11-21T11:35:19;6.40;29.90
22827;DHT22;11580;52.562;13.418;2022-11-21T11:37:57;6.50;29.80
22827;DHT22;11580;52.562;13.418;2022-11-21T11:40:30;6.60;29.60
22827;DHT22;11580;52.562;13.418;2022-11-21T11:43:17;6.70;30.30
22827;DHT22;11580;52.562;13.418;2022-11-21T11:46:22;6.80;29.20
22827;DHT22;11580;52.562;13.418;2022-11-21T11:49:17;6.90;29.20
22827;DHT22;11580;52.562;13.418;2022-11-21T11:51:57;7.00;29.20
22827;DHT22;11580;52.562;13.418;2022-11-21T11:54:28;7.10;29.40
22827;DHT22;11580;52.562;13.418;2022-11-21T11:57:03;7.10;29.20
22827;DHT22;11580;52.562;13.418;2022-11-21T11:59:35;7.20;29.00
22827;DHT22;11580;52.562;13.418;2022-11-21T12:02:15;7.20;28.90
22827;DHT22;11580;52.562;13.418;2022-11-21T12:04:49;7.20;28.60
22827;DHT22;11580;52.562;13.418;2022-11-21T12:07:23;7.20;28.90
22827;DHT22;11580;52.562;13.418;2022-11-21T12:10:02;7.20;29.70
22827;DHT22;11580;52.562;13.418;2022-11-21T12:12:39;7.30;29.40
22827;DHT22;11580;52.562;13.418;2022-11-21T12:15:14;7.30;29.60
22827;DHT22;11580;52.562;13.418;2022-11-21T12:18:11;7.30;28.60
22827;DHT22;11580;52.562;13.418;2022-11-21T12:20:52;7.40;28.30
22827;DHT22;11580;52.562;13.418;2022-11-21T12:23:25;7.40;28.50
22827;DHT22;11580;52.562;13.418;2022-11-21T12:26:09;7.40;28.60
22827;DHT22;11580;52.562;13.418;2022-11-21T12:28:53;7.40;28.10
22827;DHT22;11580;52.562;13.418;2022-11-21T12:31:39;7.40;28.40
22827;DHT22;11580;52.562;13.418;2022-11-21T12:34:32;7.40;28.20
22827;DHT22;11580;52.562;13.418;2022-11-21T12:37:19;7.40;27.90
22827;DHT22;11580;52.562;13.418;2022-11-21T12:40:08;7.50;28.10
22827;DHT22;11580;52.562;13.418;2022-11-21T12:42:55;7.50;27.80
22827;DHT22;11580;52.562;13.418;2022-11-21T12:45:35;7.50;28.10
22827;DHT22;11580;52.562;13.418;2022-11-21T12:48:16;7.50;28.50
22827;DHT22;11580;52.562;13.418;2022-11-21T12:51:51;7.50;28.30
22827;DHT22;11580;52.562;13.418;2022-11-21T12:54:56;7.50;27.70
22827;DHT22;11580;52.562;13.418;2022-11-21T12:57:41;7.50;28.20
22827;DHT22;11580;52.562;13.418;2022-11-21T13:00:19;7.50;27.90
22827;DHT22;11580;52.562;13.418;2022-11-21T13:03:11;7.40;28.40
22827;DHT22;11580;52.562;13.418;2022-11-21T13:05:51;7.40;27.60
22827;DHT22;11580;52.562;13.418;2022-11-21T13:08:25;7.50;28.40
22827;DHT22;11580;52.562;13.418;2022-11-21T13:10:59;7.40;28.10
22827;DHT22;11580;52.562;13.418;2022-11-21T13:13:57;7.40;28.10
22827;DHT22;11580;52.562;13.418;2022-11-21T13:16:30;7.40;28.00
22827;DHT22;11580;52.562;13.418;2022-11-21T13:19:09;7.40;28.20
22827;DHT22;11580;52.562;13.418;2022-11-21T13:21:44;7.40;28.20
22827;DHT22;11580;52.562;13.418;2022-11-21T13:27:29;7.40;27.60
22827;DHT22;11580;52.562;13.418;2022-11-21T13:30:17;7.40;27.60
22827;DHT22;11580;52.562;13.418;2022-11-21T13:32:48;7.40;27.60
22827;DHT22;11580;52.562;13.418;2022-11-21T13:38:25;7.40;27.60
22827;DHT22;11580;52.562;13.418;2022-11-21T13:40:54;7.40;28.90
22827;DHT22;11580;52.562;13.418;2022-11-21T13:43:39;7.40;28.70
22827;DHT22;11580;52.562;13.418;2022-11-21T13:46:06;7.40;28.30
22827;DHT22;11580;52.562;13.418;2022-11-21T13:48:53;7.40;28.80
22827;DHT22;11580;52.562;13.418;2022-11-21T13:51:47;7.40;27.60
22827;DHT22;11580;52.562;13.418;2022-11-21T13:57:50;7.40;27.60
22827;DHT22;11580;52.562;13.418;2022-11-21T14:00:46;7.30;27.60
22827;DHT22;11580;52.562;13.418;2022-11-21T14:03:51;7.30;27.60
22827;DHT22;11580;52.562;13.418;2022-11-21T14:06:33;7.30;27.60
22827;DHT22;11580;52.562;13.418;2022-11-21T14:09:26;7.20;27.50
22827;DHT22;11580;52.562;13.418;2022-11-21T14:12:02;7.10;27.50
22827;DHT22;11580;52.562;13.418;2022-11-21T14:14:47;7.10;27.50
22827;DHT22;11580;52.562;13.418;2022-11-21T14:17:42;7.00;27.40
22827;DHT22;11580;52.562;13.418;2022-11-21T14:20:18;6.90;27.30
22827;DHT22;11580;52.562;13.418;2022-11-21T14:22:54;6.80;27.40
22827;DHT22;11580;52.562;13.418;2022-11-21T14:25:29;6.80;27.60
22827;DHT22;11580;52.562;13.418;2022-11-21T14:28:04;6.80;27.70
22827;DHT22;11580;52.562;13.418;2022-11-21T14:30:37;6.80;27.90
22827;DHT22;11580;52.562;13.418;2022-11-21T14:33:22;6.70;27.80
22827;DHT22;11580;52.562;13.418;2022-11-21T14:35:53;6.70;27.50
22827;DHT22;11580;52.562;13.418;2022-11-21T14:38:23;6.60;28.30
22827;DHT22;11580;52.562;13.418;2022-11-21T14:41:23;6.60;27.90
22827;DHT22;11580;52.562;13.418;2022-11-21T14:44:20;6.60;27.70
22827;DHT22;11580;52.562;13.418;2022-11-21T14:46:50;6.50;27.80
22827;DHT22;11580;52.562;13.418;2022-11-21T14:49:28;6.50;28.10
22827;DHT22;11580;52.562;13.418;2022-11-21T14:52:15;6.50;28.20
22827;DHT22;11580;52.562;13.418;2022-11-21T14:54:49;6.50;28.10
22827;DHT22;11580;52.562;13.418;2022-11-21T14:57:21;6.40;28.20
22827;DHT22;11580;52.562;13.418;2022-11-21T14:59:50;6.40;28.30
22827;DHT22;11580;52.562;13.418;2022-11-21T15:02:22;6.40;28.30
22827;DHT22;11580;52.562;13.418;2022-11-21T15:04:51;6.40;28.30
22827;DHT22;11580;52.562;13.418;2022-11-21T15:07:23;6.40;28.40
22827;DHT22;11580;52.562;13.418;2022-11-21T15:09:52;6.40;28.40
22827;DHT22;11580;52.562;13.418;2022-11-21T15:12:25;6.40;28.40
22827;DHT22;11580;52.562;13.418;2022-11-21T15:14:58;6.40;28.30
22827;DHT22;11580;52.562;13.418;2022-11-21T15:17:30;6.40;28.60
22827;DHT22;11580;52.562;13.418;2022-11-21T15:20:15;6.40;28.90
22827;DHT22;11580;52.562;13.418;2022-11-21T15:22:46;6.30;28.20
22827;DHT22;11580;52.562;13.418;2022-11-21T15:25:17;6.30;28.30
22827;DHT22;11580;52.562;13.418;2022-11-21T15:27:47;6.30;28.30
22827;DHT22;11580;52.562;13.418;2022-11-21T15:30:35;6.30;28.40
22827;DHT22;11580;52.562;13.418;2022-11-21T15:33:12;6.30;28.20
22827;DHT22;11580;52.562;13.418;2022-11-21T15:35:44;6.30;28.30
22827;DHT22;11580;52.562;13.418;2022-11-21T15:38:31;6.30;28.40
22827;DHT22;11580;52.562;13.418;2022-11-21T15:41:23;6.30;28.20
22827;DHT22;11580;52.562;13.418;2022-11-21T15:43:54;6.30;28.10
22827;DHT22;11580;52.562;13.418;2022-11-21T15:46:24;6.30;28.40
22827;DHT22;11580;52.562;13.418;2022-11-21T15:48:54;6.30;28.40
22827;DHT22;11580;52.562;13.418;2022-11-21T15:51:24;6.30;28.40
22827;DHT22;11580;52.562;13.418;2022-11-21T15:53:52;6.20;28.40
22827;DHT22;11580;52.562;13.418;2022-11-21T15:56:20;6.20;28.40
22827;DHT22;11580;52.562;13.418;2022-11-21T15:58:48;6.20;29.00
22827;DHT22;11580;52.562;13.418;2022-11-21T16:01:17;6.20;28.50
22827;DHT22;11580;52.562;13.418;2022-11-21T16:03:47;6.20;28.50
22827;DHT22;11580;52.562;13.418;2022-11-21T16:06:17;6.20;28.50
22827;DHT22;11580;52.562;13.418;2022-11-21T16:08:45;6.20;29.10
22827;DHT22;11580;52.562;13.418;2022-11-21T16:11:16;6.20;28.60
22827;DHT22;11580;52.562;13.418;2022-11-21T16:13:49;6.20;28.60